Time;durP1;ratioP1;P1;durP2;ratioP2;P2;SDS_P1;SDS_P2;PMS_P1;PMS_P2;Temp;Humidity;BMP_temperature;BMP_pressure;BME280_temperature;BME280_humidity;BME280_pressure;Samples;Min_cycle;Max_cycle;Signal;HPM_P1;HPM_P2
2022/10/09 00:01:16;;;;;;;4.20;3.77;;;23.20;68.80;;;;;;4873921;29;21027;-83
2022/10/09 00:03:46;;;;;;;4.33;3.93;;;23.20;68.80;;;;;;4874829;29;20464;-83
2022/10/09 00:06:17;;;;;;;4.93;3.60;;;23.20;68.80;;;;;;4876990;29;20468;-83
2022/10/09 00:08:45;;;;;;;4.33;4.00;;;23.20;68.80;;;;;;4879178;29;20454;-83
2022/10/09 00:11:15;;;;;;;3.50;3.20;;;23.20;68.80;;;;;;4877162;29;20947;-83
2022/10/09 00:13:45;;;;;;;3.70;3.40;;;23.20;68.80;;;;;;4878598;29;20484;-84
2022/10/09 00:16:15;;;;;;;3.70;3.40;;;23.20;68.80;;;;;;4879113;29;20448;-83
2022/10/09 00:18:44;;;;;;;4.00;3.70;;;23.10;68.80;;;;;;4878306;29;20969;-83
2022/10/09 00:21:19;;;;;;;4.20;3.10;;;23.20;68.70;;;;;;4878123;29;20986;-83
2022/10/09 00:23:47;;;;;;;5.43;4.53;;;23.10;68.80;;;;;;4878424;29;20469;-83
2022/10/09 00:26:15;;;;;;;3.70;3.50;;;23.10;68.80;;;;;;4878599;29;20434;-83
2022/10/09 00:28:46;;;;;;;3.60;3.30;;;23.10;68.70;;;;;;4878582;29;20439;-83
2022/10/09 00:31:15;;;;;;;4.10;3.80;;;23.10;68.80;;;;;;4878455;29;20465;-83
2022/10/09 00:33:44;;;;;;;3.87;3.50;;;23.10;68.80;;;;;;4878260;29;20504;-83
2022/10/09 00:36:15;;;;;;;4.40;4.00;;;23.10;68.80;;;;;;4878310;29;20444;-83
2022/10/09 00:38:43;;;;;;;3.57;3.30;;;23.10;68.80;;;;;;4878477;29;20952;-83
2022/10/09 00:41:15;;;;;;;3.90;2.97;;;23.10;68.70;;;;;;4871826;29;20468;-83
2022/10/09 00:43:47;;;;;;;3.80;3.50;;;23.10;68.80;;;;;;4859955;29;20861;-83
2022/10/09 00:46:32;;;;;;;3.97;3.67;;;23.10;68.70;;;;;;4875263;29;20548;-83
2022/10/09 00:49:06;;;;;;;3.60;3.30;;;23.10;68.80;;;;;;4877955;29;20473;-83
2022/10/09 00:51:34;;;;;;;4.50;3.70;;;23.10;68.80;;;;;;4876438;29;20480;-83
2022/10/09 00:54:05;;;;;;;3.37;3.07;;;23.10;68.80;;;;;;4877808;29;20475;-83
2022/10/09 00:56:34;;;;;;;3.90;3.60;;;23.10;68.70;;;;;;4877536;29;20451;-83
2022/10/09 00:59:04;;;;;;;3.50;3.20;;;23.10;68.80;;;;;;4869675;29;20463;-83
2022/10/09 01:01:32;;;;;;;3.30;3.10;;;23.10;68.70;;;;;;4873752;29;20481;-83
2022/10/09 01:04:01;;;;;;;3.97;3.40;;;23.10;68.70;;;;;;4876522;29;20520;-83
2022/10/09 01:06:43;;;;;;;3.87;3.57;;;23.10;68.80;;;;;;4875491;29;20471;-83
2022/10/09 01:09:14;;;;;;;3.50;3.20;;;23.10;68.90;;;;;;4876692;29;20516;-83
2022/10/09 01:11:51;;;;;;;3.43;3.23;;;23.10;68.90;;;;;;4877031;29;20466;-83
2022/10/09 01:14:26;;;;;;;3.83;3.53;;;23.10;68.90;;;;;;4875979;29;20935;-83
2022/10/09 01:17:02;;;;;;;3.70;3.40;;;23.10;68.90;;;;;;4878012;29;20490;-83
2022/10/09 01:19:50;;;;;;;4.23;3.37;;;23.10;68.90;;;;;;4877529;29;20530;-83
2022/10/09 01:22:39;;;;;;;4.50;4.10;;;23.10;68.90;;;;;;4865116;29;20471;-83
2022/10/09 01:25:11;;;;;;;4.00;3.70;;;23.00;68.80;;;;;;4876917;29;20474;-83
2022/10/09 01:27:41;;;;;;;3.53;3.30;;;23.00;68.90;;;;;;4877543;29;20451;-83
2022/10/09 01:30:12;;;;;;;3.23;3.03;;;23.00;68.80;;;;;;4877034;29;20480;-83
2022/10/09 01:32:46;;;;;;;2.90;2.70;;;23.00;68.80;;;;;;4878227;29;20451;-83
2022/10/09 01:35:15;;;;;;;2.97;2.80;;;23.00;68.80;;;;;;4876958;29;20476;-83
2022/10/09 01:37:45;;;;;;;3.70;3.40;;;23.00;68.80;;;;;;4877488;29;20479;-83
2022/10/09 01:40:18;;;;;;;3.27;2.97;;;23.00;68.80;;;;;;4877176;29;20940;-83
2022/10/09 01:42:47;;;;;;;3.70;3.40;;;23.00;68.80;;;;;;4877565;29;20927;-83
2022/10/09 01:45:16;;;;;;;2.97;2.73;;;23.00;68.80;;;;;;4877335;29;20919;-83
2022/10/09 01:47:44;;;;;;;3.33;3.00;;;23.00;68.80;;;;;;4877489;29;20447;-83
2022/10/09 01:50:23;;;;;;;3.00;2.80;;;23.00;68.80;;;;;;4876469;29;20467;-83
2022/10/09 01:52:54;;;;;;;3.90;3.60;;;23.00;68.80;;;;;;4877918;29;20438;-83
2022/10/09 01:55:33;;;;;;;3.17;2.87;;;23.00;68.90;;;;;;4877534;29;20459;-83
2022/10/09 01:58:09;;;;;;;3.10;2.80;;;23.00;68.80;;;;;;4877222;29;20498;-83
2022/10/09 02:00:42;;;;;;;3.33;3.03;;;23.00;68.80;;;;;;4875566;29;20467;-83
2022/10/09 02:03:13;;;;;;;3.57;3.00;;;23.00;68.80;;;;;;4869614;29;20963;-83
2022/10/09 02:05:43;;;;;;;4.40;3.53;;;23.00;68.80;;;;;;4865935;29;20561;-83
2022/10/09 02:08:14;;;;;;;3.10;2.90;;;23.00;68.80;;;;;;4876517;29;20457;-83
2022/10/09 02:10:43;;;;;;;3.70;3.40;;;22.90;68.80;;;;;;4875292;29;20466;-83
2022/10/09 02:13:13;;;;;;;3.77;3.47;;;23.00;68.80;;;;;;4876116;29;20466;-83
2022/10/09 02:15:48;;;;;;;2.67;2.47;;;22.90;68.80;;;;;;4877156;29;20459;-83
2022/10/09 02:18:23;;;;;;;3.50;3.20;;;22.90;68.80;;;;;;4877448;29;20499;-83
2022/10/09 02:20:55;;;;;;;3.20;2.90;;;22.90;68.80;;;;;;4876337;29;21074;-83
2022/10/09 02:23:25;;;;;;;4.00;3.70;;;22.90;68.80;;;;;;4880212;29;20446;-83
2022/10/09 02:25:53;;;;;;;3.30;3.10;;;22.90;68.80;;;;;;4881369;29;20427;-83
2022/10/09 02:28:23;;;;;;;2.87;2.67;;;22.90;68.80;;;;;;4880832;29;21298;-83
2022/10/09 02:30:57;;;;;;;3.53;3.33;;;22.90;68.80;;;;;;4880145;29;20475;-83
2022/10/09 02:33:31;;;;;;;4.87;4.40;;;22.90;68.80;;;;;;4880720;29;20457;-83
2022/10/09 02:36:00;;;;;;;2.83;2.70;;;22.90;68.80;;;;;;4880062;29;20453;-83
2022/10/09 02:38:29;;;;;;;3.70;3.40;;;22.90;68.80;;;;;;4881088;29;20489;-83
2022/10/09 02:40:59;;;;;;;2.80;2.60;;;22.90;68.80;;;;;;4879942;29;20477;-83
2022/10/09 02:43:29;;;;;;;3.77;3.10;;;22.90;68.70;;;;;;4880089;29;20435;-83
2022/10/09 02:45:57;;;;;;;2.70;2.50;;;22.90;68.80;;;;;;4880673;29;20450;-83
2022/10/09 02:48:25;;;;;;;3.40;3.10;;;22.90;68.70;;;;;;4880749;29;20451;-83
2022/10/09 02:50:53;;;;;;;3.17;2.87;;;22.90;68.70;;;;;;4879366;29;20467;-83
2022/10/09 02:53:21;;;;;;;3.50;3.20;;;22.90;68.70;;;;;;4880569;29;20452;-83
2022/10/09 02:55:49;;;;;;;2.80;2.60;;;22.90;68.70;;;;;;4879994;29;20806;-83
2022/10/09 02:58:18;;;;;;;2.90;2.70;;;22.90;68.70;;;;;;4879998;29;20489;-83
2022/10/09 03:00:50;;;;;;;2.77;2.50;;;22.90;68.70;;;;;;4874699;29;20474;-83
2022/10/09 03:03:19;;;;;;;2.80;2.60;;;22.90;68.70;;;;;;4879370;29;20795;-83
2022/10/09 03:05:47;;;;;;;2.87;2.57;;;22.90;68.70;;;;;;4878253;29;21194;-83
2022/10/09 03:08:15;;;;;;;2.77;2.57;;;22.90;68.70;;;;;;4879127;29;20471;-83
2022/10/09 03:10:43;;;;;;;2.80;2.60;;;22.90;68.70;;;;;;4879310;29;20475;-83
2022/10/09 03:13:11;;;;;;;2.23;2.07;;;22.90;68.70;;;;;;4879636;29;20436;-83
2022/10/09 03:15:39;;;;;;;3.03;2.83;;;22.90;68.70;;;;;;4880124;29;20876;-83
2022/10/09 03:18:09;;;;;;;1.97;1.87;;;22.80;68.70;;;;;;4879642;29;20985;-83
2022/10/09 03:20:38;;;;;;;2.73;2.50;;;22.90;68.70;;;;;;4878517;29;20499;-83
2022/10/09 03:23:06;;;;;;;4.53;2.33;;;22.90;68.60;;;;;;4874643;29;20483;-83
2022/10/09 03:25:34;;;;;;;3.43;3.13;;;22.80;68.70;;;;;;4861373;29;20451;-83
2022/10/09 03:28:02;;;;;;;4.77;2.17;;;22.90;68.60;;;;;;4873766;29;20896;-83
2022/10/09 03:30:31;;;;;;;2.37;2.17;;;22.80;68.60;;;;;;4878936;29;20506;-83
2022/10/09 03:32:59;;;;;;;3.17;2.97;;;22.80;68.70;;;;;;4878872;29;20467;-83
2022/10/09 03:35:28;;;;;;;3.03;2.80;;;22.80;68.70;;;;;;4879561;29;20581;-83
2022/10/09 03:37:56;;;;;;;2.70;2.50;;;22.80;68.70;;;;;;4879328;29;20800;-83
2022/10/09 03:40:24;;;;;;;2.83;2.40;;;22.80;68.70;;;;;;4878351;29;20471;-83
2022/10/09 03:42:53;;;;;;;2.80;2.60;;;22.80;68.70;;;;;;4880022;29;20461;-83
2022/10/09 03:45:21;;;;;;;2.33;2.23;;;22.80;68.70;;;;;;4878990;29;20481;-83
2022/10/09 03:47:49;;;;;;;3.13;2.30;;;22.80;68.60;;;;;;4879579;29;20819;-83
2022/10/09 03:50:17;;;;;;;2.20;2.10;;;22.80;68.70;;;;;;4878754;29;20443;-83
2022/10/09 03:52:46;;;;;;;2.40;2.20;;;22.80;68.70;;;;;;4879427;29;20455;-83
2022/10/09 03:55:15;;;;;;;3.00;2.80;;;22.80;68.60;;;;;;4878837;29;20448;-83
2022/10/09 03:57:43;;;;;;;2.57;2.37;;;22.80;68.60;;;;;;4879414;29;20784;-83
2022/10/09 04:00:13;;;;;;;2.97;2.70;;;22.80;68.60;;;;;;4860205;29;20961;-83
2022/10/09 04:02:41;;;;;;;5.00;2.50;;;22.80;68.70;;;;;;4879021;29;20789;-83
2022/10/09 04:05:09;;;;;;;2.53;2.33;;;22.80;68.60;;;;;;4877026;29;20503;-83
2022/10/09 04:07:37;;;;;;;2.57;2.37;;;22.80;68.60;;;;;;4877042;29;20874;-83
2022/10/09 04:10:07;;;;;;;2.70;2.50;;;22.80;68.60;;;;;;4877564;29;20461;-83
2022/10/09 04:12:36;;;;;;;2.43;2.33;;;22.80;68.60;;;;;;4877376;29;20451;-83
2022/10/09 04:15:04;;;;;;;2.57;2.20;;;22.80;68.60;;;;;;4877871;29;20432;-83
2022/10/09 04:17:33;;;;;;;2.67;2.47;;;22.80;68.60;;;;;;4878676;29;20875;-83
2022/10/09 04:20:01;;;;;;;2.57;2.37;;;22.80;68.60;;;;;;4878765;29;21376;-83
2022/10/09 04:22:29;;;;;;;2.60;2.10;;;22.80;68.60;;;;;;4874617;29;20466;-83
2022/10/09 04:24:57;;;;;;;2.60;2.50;;;22.70;68.60;;;;;;4878776;29;20462;-83
2022/10/09 04:27:26;;;;;;;2.10;2.00;;;22.70;68.60;;;;;;4878936;29;20444;-83
2022/10/09 04:29:54;;;;;;;2.43;2.23;;;22.80;68.60;;;;;;4878350;29;20463;-83
2022/10/09 04:32:22;;;;;;;2.10;2.00;;;22.70;68.60;;;;;;4878035;29;20468;-83
2022/10/09 04:34:50;;;;;;;2.47;2.37;;;22.70;68.60;;;;;;4863729;29;20456;-83
2022/10/09 04:37:18;;;;;;;3.07;2.27;;;22.70;68.60;;;;;;4861583;29;20436;-83
2022/10/09 04:39:46;;;;;;;2.70;2.50;;;22.70;68.50;;;;;;4878416;29;20483;-83
2022/10/09 04:42:14;;;;;;;2.00;1.80;;;22.70;68.50;;;;;;4877967;29;20466;-83
2022/10/09 04:44:44;;;;;;;2.47;2.30;;;22.70;68.50;;;;;;4877700;29;20458;-83
2022/10/09 04:47:12;;;;;;;5.10;2.43;;;22.70;68.40;;;;;;4878848;29;20466;-83
2022/10/09 04:49:40;;;;;;;2.10;1.90;;;22.70;68.40;;;;;;4878304;29;20439;-83
2022/10/09 04:52:08;;;;;;;2.50;2.30;;;22.70;68.40;;;;;;4877110;29;20478;-83
2022/10/09 04:54:36;;;;;;;2.47;2.37;;;22.70;68.40;;;;;;4878292;29;20447;-83
2022/10/09 04:57:04;;;;;;;2.17;1.97;;;22.70;68.30;;;;;;4877902;29;20457;-83
2022/10/09 04:59:32;;;;;;;2.60;2.40;;;22.70;68.20;;;;;;4875401;29;20483;-83
2022/10/09 05:02:02;;;;;;;2.43;2.23;;;22.70;68.20;;;;;;4868736;29;20467;-83
2022/10/09 05:04:30;;;;;;;2.03;1.93;;;22.70;68.30;;;;;;4877494;29;21129;-84
2022/10/09 05:06:58;;;;;;;2.00;1.90;;;22.70;68.30;;;;;;4877673;29;20443;-83
2022/10/09 05:09:26;;;;;;;2.07;1.97;;;22.70;68.20;;;;;;4877938;29;20462;-83
2022/10/09 05:11:55;;;;;;;2.60;2.50;;;22.70;68.20;;;;;;4876890;29;20474;-83
2022/10/09 05:14:23;;;;;;;2.57;2.37;;;22.70;68.20;;;;;;4876638;29;20475;-83
2022/10/09 05:16:52;;;;;;;2.33;2.13;;;22.70;68.10;;;;;;4877935;29;20790;-83
2022/10/09 05:19:41;;;;;;;2.57;2.37;;;22.60;68.10;;;;;;4867913;29;20507;-83
2022/10/09 05:22:09;;;;;;;2.00;1.90;;;22.60;68.10;;;;;;4872449;29;20495;-83
2022/10/09 05:24:37;;;;;;;1.90;1.80;;;22.60;68.10;;;;;;4877886;29;20463;-83
2022/10/09 05:27:05;;;;;;;2.93;2.47;;;22.60;68.10;;;;;;4877581;29;20469;-83
2022/10/09 05:29:33;;;;;;;2.20;2.00;;;22.60;68.10;;;;;;4876878;29;20560;-83
2022/10/09 05:32:01;;;;;;;2.20;2.10;;;22.60;68.10;;;;;;4877079;29;20947;-83
2022/10/09 05:34:30;;;;;;;2.10;2.00;;;22.60;68.10;;;;;;4877048;29;20798;-83
2022/10/09 05:36:59;;;;;;;2.30;2.17;;;22.60;68.10;;;;;;4877877;29;20443;-83
2022/10/09 05:39:28;;;;;;;1.83;1.73;;;22.60;68.10;;;;;;4876281;29;20494;-83
2022/10/09 05:41:56;;;;;;;2.40;2.30;;;22.60;68.10;;;;;;4875944;29;20467;-83
2022/10/09 05:44:24;;;;;;;1.90;1.80;;;22.60;68.00;;;;;;4876343;29;20459;-83
2022/10/09 05:46:52;;;;;;;4.30;2.50;;;22.60;68.00;;;;;;4878415;29;20919;-83
2022/10/09 05:49:20;;;;;;;2.13;2.00;;;22.60;68.10;;;;;;4876827;29;20435;-83
2022/10/09 05:51:49;;;;;;;2.10;2.00;;;22.60;68.10;;;;;;4876999;29;20493;-83
2022/10/09 05:54:18;;;;;;;2.40;2.20;;;22.60;68.20;;;;;;4877126;29;20432;-83
2022/10/09 05:56:47;;;;;;;1.97;1.87;;;22.60;68.20;;;;;;4876706;29;20469;-83
2022/10/09 05:59:18;;;;;;;2.47;2.37;;;22.60;68.10;;;;;;4876684;29;20459;-83
2022/10/09 06:01:48;;;;;;;2.50;2.30;;;22.60;68.10;;;;;;4870650;29;20463;-83
2022/10/09 06:04:18;;;;;;;1.93;1.80;;;22.60;68.10;;;;;;4871709;29;20529;-83
2022/10/09 06:06:47;;;;;;;2.80;2.60;;;22.60;68.20;;;;;;4877632;29;20488;-83
2022/10/09 06:09:16;;;;;;;2.20;2.00;;;22.60;68.20;;;;;;4877290;29;20443;-83
2022/10/09 06:11:46;;;;;;;2.07;1.87;;;22.60;68.20;;;;;;4876095;29;20470;-83
2022/10/09 06:14:14;;;;;;;2.87;2.23;;;22.60;68.10;;;;;;4875664;29;20477;-83
2022/10/09 06:16:44;;;;;;;2.67;2.47;;;22.60;68.10;;;;;;4876615;29;20502;-82
2022/10/09 06:19:14;;;;;;;2.03;1.93;;;22.60;68.20;;;;;;4875643;29;20505;-83
2022/10/09 06:21:43;;;;;;;2.00;1.90;;;22.60;68.10;;;;;;4867218;29;20481;-83
2022/10/09 06:24:18;;;;;;;1.87;1.77;;;22.60;68.10;;;;;;4871601;29;20470;-83
2022/10/09 06:26:49;;;;;;;2.17;2.07;;;22.60;68.10;;;;;;4870156;29;20462;-83
2022/10/09 06:29:17;;;;;;;1.93;1.83;;;22.60;68.10;;;;;;4873754;29;20462;-83
2022/10/09 06:31:45;;;;;;;1.87;1.60;;;22.60;68.10;;;;;;4865108;29;20552;-83
2022/10/09 06:34:13;;;;;;;1.80;1.70;;;22.60;68.10;;;;;;4866545;29;20468;-83
2022/10/09 06:36:42;;;;;;;2.20;2.10;;;22.60;68.10;;;;;;4862654;29;20474;-83
2022/10/09 06:39:10;;;;;;;1.43;1.33;;;22.60;68.10;;;;;;4868517;29;20477;-83
2022/10/09 06:41:39;;;;;;;1.80;1.70;;;22.60;68.10;;;;;;4870587;29;20491;-83
2022/10/09 06:44:27;;;;;;;2.00;1.77;;;22.60;68.10;;;;;;4862098;29;20566;-83
2022/10/09 06:46:55;;;;;;;1.80;1.70;;;22.60;68.10;;;;;;4866736;29;21545;-83
2022/10/09 06:49:23;;;;;;;2.27;2.10;;;22.60;68.10;;;;;;4864627;29;20468;-83
2022/10/09 06:51:51;;;;;;;2.80;1.83;;;22.60;68.10;;;;;;4864796;29;20482;-83
2022/10/09 06:54:19;;;;;;;2.70;1.90;;;22.60;68.10;;;;;;4870934;29;20459;-83
2022/10/09 06:56:47;;;;;;;2.17;1.97;;;22.60;68.10;;;;;;4870528;29;20468;-82
2022/10/09 06:59:15;;;;;;;2.33;2.13;;;22.60;68.20;;;;;;4875237;29;20835;-83
2022/10/09 07:01:45;;;;;;;7.03;1.60;;;22.60;68.10;;;;;;4868872;29;20492;-83
2022/10/09 07:04:16;;;;;;;3.00;2.00;;;22.60;68.10;;;;;;4871123;29;20471;-83
2022/10/09 07:06:46;;;;;;;2.50;2.00;;;22.60;68.20;;;;;;4874218;29;20464;-82
2022/10/09 07:09:15;;;;;;;1.80;1.70;;;22.60;68.20;;;;;;4869180;29;20470;-85
2022/10/09 07:11:45;;;;;;;1.70;1.60;;;22.60;68.10;;;;;;4876413;29;20465;-84
2022/10/09 07:14:14;;;;;;;2.20;2.10;;;22.60;68.10;;;;;;4870768;29;20815;-84
2022/10/09 07:16:45;;;;;;;2.70;2.07;;;22.60;68.10;;;;;;4873901;29;20463;-84
2022/10/09 07:19:16;;;;;;;2.50;1.90;;;22.60;68.10;;;;;;4876574;29;20498;-84
2022/10/09 07:21:46;;;;;;;3.77;2.43;;;22.60;68.10;;;;;;4876874;29;20486;-83
2022/10/09 07:24:15;;;;;;;8.47;5.13;;;22.70;68.10;;;;;;4876938;29;20451;-87
2022/10/09 07:26:45;;;;;;;4.40;3.77;;;22.70;69.30;;;;;;4880601;29;20467;-84
2022/10/09 07:29:16;;;;;;;7.83;7.07;;;22.70;69.20;;;;;;4873405;29;20493;-85
2022/10/09 07:31:45;;;;;;;7.20;6.17;;;22.70;70.70;;;;;;4871924;29;20559;-84
2022/10/09 07:34:13;;;;;;;5.80;5.07;;;22.70;70.80;;;;;;4872886;29;20495;-83
2022/10/09 07:36:41;;;;;;;6.03;3.90;;;22.70;70.50;;;;;;4872453;29;20475;-85
2022/10/09 07:39:10;;;;;;;3.73;3.43;;;22.70;70.40;;;;;;4875682;29;20458;-84
2022/10/09 07:41:38;;;;;;;4.20;3.07;;;22.70;70.20;;;;;;4874178;29;20479;-85
2022/10/09 07:44:06;;;;;;;4.30;3.30;;;22.70;70.00;;;;;;4877414;29;20478;-84
2022/10/09 07:46:34;;;;;;;4.63;3.17;;;22.80;69.90;;;;;;4872811;29;20463;-85
2022/10/09 07:49:04;;;;;;;4.00;2.80;;;22.80;69.60;;;;;;4877695;29;20535;-85
2022/10/09 07:51:33;;;;;;;3.10;2.73;;;22.80;70.20;;;;;;4874707;29;20463;-86
2022/10/09 07:54:01;;;;;;;4.23;3.10;;;22.80;70.10;;;;;;4877057;29;20451;-85
2022/10/09 07:56:32;;;;;;;5.03;3.40;;;22.80;69.90;;;;;;4880056;29;20452;-85
2022/10/09 07:59:02;;;;;;;5.27;3.07;;;22.80;69.70;;;;;;4878788;29;21250;-84
2022/10/09 08:01:31;;;;;;;5.23;2.87;;;22.80;69.50;;;;;;4878071;29;20483;-86
2022/10/09 08:04:00;;;;;;;11.00;3.60;;;22.80;69.40;;;;;;4871545;29;20458;-86
2022/10/09 08:06:33;;;;;;;5.63;3.10;;;22.80;69.30;;;;;;4885783;29;20465;-86
2022/10/09 08:09:04;;;;;;;4.10;2.60;;;22.80;69.30;;;;;;4876941;29;20456;-85
2022/10/09 08:11:33;;;;;;;7.83;3.20;;;22.80;69.30;;;;;;4882713;29;20554;-85
2022/10/09 08:14:01;;;;;;;4.10;3.10;;;22.80;69.20;;;;;;4874716;29;20463;-85
2022/10/09 08:16:32;;;;;;;4.70;2.53;;;22.90;69.00;;;;;;4877926;29;20467;-86
2022/10/09 08:19:01;;;;;;;4.90;2.90;;;22.90;69.00;;;;;;4873607;29;20936;-85
2022/10/09 08:21:31;;;;;;;3.50;2.63;;;22.90;68.90;;;;;;4878598;29;20486;-86
2022/10/09 08:24:00;;;;;;;6.30;3.17;;;22.90;68.80;;;;;;4879788;29;20543;-85
2022/10/09 08:26:30;;;;;;;3.00;2.70;;;22.90;68.70;;;;;;4877001;29;20447;-85
2022/10/09 08:29:00;;;;;;;3.53;2.70;;;22.90;68.60;;;;;;4878910;29;20812;-86
2022/10/09 08:31:30;;;;;;;3.10;2.43;;;22.90;68.60;;;;;;4877670;29;20470;-86
2022/10/09 08:34:00;;;;;;;3.57;2.50;;;22.90;68.50;;;;;;4875554;29;20475;-85
2022/10/09 08:36:29;;;;;;;6.47;3.50;;;22.90;68.40;;;;;;4878950;29;21412;-86
2022/10/09 08:38:59;;;;;;;3.70;2.37;;;22.90;68.50;;;;;;4878810;29;20830;-86
2022/10/09 08:41:40;;;;;;;2.97;2.17;;;22.90;68.40;;;;;;4877991;29;20527;-85
2022/10/09 08:44:16;;;;;;;6.77;3.10;;;22.90;68.40;;;;;;4878783;29;20467;-86
2022/10/09 08:46:53;;;;;;;3.30;2.90;;;22.90;68.40;;;;;;4878522;29;20452;-86
2022/10/09 08:49:27;;;;;;;5.57;3.20;;;22.90;68.30;;;;;;4874534;29;20924;-86
2022/10/09 08:51:58;;;;;;;3.17;2.87;;;22.90;68.40;;;;;;4875558;29;20463;-85
2022/10/09 08:54:34;;;;;;;3.90;2.70;;;23.00;68.40;;;;;;4874952;29;20471;-85
2022/10/09 08:57:09;;;;;;;4.10;3.57;;;22.90;68.30;;;;;;4878256;29;20477;-85
2022/10/09 08:59:37;;;;;;;2.73;2.37;;;23.00;68.20;;;;;;4872529;29;20483;-85
2022/10/09 09:02:19;;;;;;;2.70;2.50;;;23.00;68.20;;;;;;4875681;29;20483;-85
2022/10/09 09:04:59;;;;;;;2.87;2.67;;;23.00;68.10;;;;;;4875592;29;20499;-85
2022/10/09 09:07:39;;;;;;;2.50;2.30;;;23.00;68.00;;;;;;4878201;29;20465;-86
2022/10/09 09:10:19;;;;;;;5.00;3.83;;;23.00;67.80;;;;;;4878211;29;20490;-86
2022/10/09 09:12:51;;;;;;;3.97;3.57;;;23.10;67.70;;;;;;4873037;29;20462;-85
2022/10/09 09:15:41;;;;;;;3.03;2.80;;;23.10;67.60;;;;;;4876462;29;20470;-87
2022/10/09 09:18:26;;;;;;;3.33;3.00;;;23.10;67.40;;;;;;4871096;29;21007;-85
2022/10/09 09:20:56;;;;;;;3.77;2.73;;;23.10;67.30;;;;;;4873991;29;20496;-85
2022/10/09 09:23:29;;;;;;;4.67;3.57;;;23.10;67.40;;;;;;4865957;29;20557;-85
2022/10/09 09:25:59;;;;;;;3.50;3.20;;;23.10;67.30;;;;;;4869596;29;20463;-85
2022/10/09 09:28:30;;;;;;;3.90;3.37;;;23.10;67.10;;;;;;4868178;29;20466;-85
2022/10/09 09:31:02;;;;;;;5.93;2.70;;;23.10;67.00;;;;;;4866857;29;20464;-86
2022/10/09 09:33:39;;;;;;;2.70;2.50;;;23.10;67.10;;;;;;4870300;29;20563;-85
2022/10/09 09:36:18;;;;;;;3.60;3.20;;;23.10;67.00;;;;;;4872924;29;20567;-85
2022/10/09 09:38:46;;;;;;;3.37;3.00;;;23.20;67.10;;;;;;4867371;29;20468;-85
2022/10/09 09:41:35;;;;;;;3.47;3.17;;;23.20;66.90;;;;;;4871118;29;20710;-85
2022/10/09 09:44:05;;;;;;;3.60;3.30;;;23.20;66.90;;;;;;4867920;29;20477;-85
2022/10/09 09:46:33;;;;;;;4.27;3.50;;;23.20;66.60;;;;;;4871384;29;20463;-85
2022/10/09 09:49:02;;;;;;;4.73;4.30;;;23.20;66.50;;;;;;4865927;29;20479;-85
2022/10/09 09:51:36;;;;;;;3.53;3.10;;;23.20;66.50;;;;;;4870946;29;20547;-85
2022/10/09 09:54:07;;;;;;;3.57;3.00;;;23.20;66.40;;;;;;4869293;29;20476;-85
2022/10/09 09:56:39;;;;;;;3.93;3.63;;;23.30;66.50;;;;;;4873382;29;20468;-85
2022/10/09 09:59:33;;;;;;;3.90;3.50;;;23.30;66.50;;;;;;4869819;29;20456;-85
2022/10/09 10:02:03;;;;;;;4.50;3.40;;;23.30;66.50;;;;;;4868505;29;20488;-85
2022/10/09 10:04:32;;;;;;;6.37;2.80;;;23.30;66.50;;;;;;4874179;29;20549;-85
2022/10/09 10:07:01;;;;;;;3.60;3.30;;;23.30;66.70;;;;;;4877212;29;20463;-85
2022/10/09 10:09:30;;;;;;;3.90;3.50;;;23.30;66.70;;;;;;4869213;29;20456;-84
2022/10/09 10:12:03;;;;;;;3.33;3.03;;;23.40;66.60;;;;;;4874671;29;20467;-84
2022/10/09 10:14:32;;;;;;;2.93;2.73;;;23.40;66.50;;;;;;4867345;29;20552;-84
2022/10/09 10:17:02;;;;;;;3.20;3.00;;;23.50;66.40;;;;;;4872430;29;20467;-84
2022/10/09 10:19:34;;;;;;;3.63;3.13;;;23.50;66.30;;;;;;4873263;29;20510;-84
2022/10/09 10:22:03;;;;;;;2.90;2.70;;;23.50;66.40;;;;;;4874118;29;20511;-84
2022/10/09 10:24:35;;;;;;;3.87;3.07;;;23.50;66.30;;;;;;4876666;29;20538;-84
2022/10/09 10:27:12;;;;;;;3.37;3.07;;;23.60;66.20;;;;;;4874702;29;20480;-83
2022/10/09 10:29:44;;;;;;;2.97;2.77;;;23.60;66.20;;;;;;4872862;29;20461;-83
2022/10/09 10:32:17;;;;;;;3.27;2.97;;;23.70;66.20;;;;;;4867882;29;20466;-83
2022/10/09 10:34:50;;;;;;;3.23;2.93;;;23.70;66.10;;;;;;4872640;29;20469;-83
2022/10/09 10:37:31;;;;;;;5.70;2.90;;;23.70;66.00;;;;;;4872512;29;20464;-83
2022/10/09 10:40:05;;;;;;;4.70;2.90;;;23.80;65.70;;;;;;4866867;29;20472;-83
2022/10/09 10:42:44;;;;;;;3.20;2.60;;;23.90;65.70;;;;;;4869316;29;20475;-83
2022/10/09 10:45:20;;;;;;;3.10;2.80;;;23.90;65.50;;;;;;4877939;29;20480;-83
2022/10/09 10:47:52;;;;;;;3.03;2.73;;;24.00;65.40;;;;;;4869190;29;20454;-83
2022/10/09 10:50:21;;;;;;;2.70;2.50;;;24.00;65.40;;;;;;4874508;29;20484;-84
2022/10/09 10:53:01;;;;;;;2.83;2.63;;;24.10;65.10;;;;;;4870711;29;20463;-83
2022/10/09 10:55:49;;;;;;;3.13;2.70;;;24.10;65.00;;;;;;4877758;29;20480;-83
2022/10/09 10:58:28;;;;;;;3.20;2.80;;;24.20;64.80;;;;;;4879647;29;20466;-82
2022/10/09 11:01:12;;;;;;;3.10;2.90;;;24.30;64.60;;;;;;4877020;29;20470;-82
2022/10/09 11:03:53;;;;;;;2.70;2.50;;;24.40;64.40;;;;;;4878200;29;20490;-83
2022/10/09 11:06:29;;;;;;;3.13;2.83;;;24.40;64.30;;;;;;4880230;29;20467;-83
2022/10/09 11:09:04;;;;;;;2.70;2.50;;;24.40;64.20;;;;;;4877702;29;20460;-83
2022/10/09 11:11:38;;;;;;;2.60;2.50;;;24.50;64.10;;;;;;4879939;29;20454;-83
2022/10/09 11:14:24;;;;;;;3.00;2.80;;;24.50;64.00;;;;;;4879893;29;20473;-83
2022/10/09 11:17:06;;;;;;;3.20;2.90;;;24.50;64.00;;;;;;4879007;29;20470;-83
2022/10/09 11:19:50;;;;;;;2.70;2.50;;;24.50;64.10;;;;;;4879989;29;20560;-81
2022/10/09 11:22:42;;;;;;;2.73;2.50;;;24.40;64.40;;;;;;4879107;29;20493;-82
2022/10/09 11:25:28;;;;;;;3.53;3.23;;;24.40;64.50;;;;;;4876597;29;20514;-85
2022/10/09 11:28:06;;;;;;;2.93;2.80;;;24.50;64.60;;;;;;4866228;29;20461;-83
2022/10/09 11:30:43;;;;;;;3.10;2.87;;;24.50;64.60;;;;;;4871027;29;21184;-82
2022/10/09 11:33:24;;;;;;;3.10;2.73;;;24.60;64.60;;;;;;4870553;29;20455;-82
2022/10/09 11:35:59;;;;;;;2.70;2.50;;;24.60;64.50;;;;;;4870599;29;20810;-82
2022/10/09 11:38:31;;;;;;;2.80;2.53;;;24.60;64.50;;;;;;4870919;29;20448;-82
2022/10/09 11:41:00;;;;;;;3.37;3.10;;;24.60;64.50;;;;;;4877912;29;20459;-82
2022/10/09 11:44:10;;;;;;;3.00;2.80;;;24.60;64.40;;;;;;4878172;29;20479;-82
2022/10/09 11:46:49;;;;;;;3.97;2.67;;;24.70;64.40;;;;;;4850042;29;20472;-82
2022/10/09 11:49:22;;;;;;;5.03;2.33;;;24.60;64.40;;;;;;4872552;29;20467;-82
2022/10/09 11:51:58;;;;;;;4.07;2.67;;;24.60;64.40;;;;;;4865216;29;20460;-82
2022/10/09 11:54:27;;;;;;;2.63;2.43;;;24.60;64.40;;;;;;4867487;29;20475;-82
2022/10/09 11:56:57;;;;;;;2.20;2.00;;;24.60;64.40;;;;;;4868799;29;20457;-82
2022/10/09 11:59:29;;;;;;;6.10;2.73;;;24.50;64.40;;;;;;4868021;29;20464;-82
2022/10/09 12:02:00;;;;;;;2.93;2.73;;;24.50;64.50;;;;;;4869149;29;20837;-82
2022/10/09 12:04:33;;;;;;;5.70;2.50;;;24.50;64.60;;;;;;4868607;29;20476;-82
2022/10/09 12:07:30;;;;;;;4.23;2.63;;;24.40;64.60;;;;;;4868487;29;20461;-82
2022/10/09 12:10:02;;;;;;;2.07;1.97;;;24.40;64.70;;;;;;4867164;29;20462;-82
2022/10/09 12:12:31;;;;;;;3.60;2.63;;;24.40;64.60;;;;;;4869130;29;20472;-82
2022/10/09 12:15:11;;;;;;;4.33;3.13;;;24.40;64.70;;;;;;4868167;29;20473;-82
2022/10/09 12:17:48;;;;;;;5.40;2.33;;;24.40;64.70;;;;;;4868357;29;20465;-82
2022/10/09 12:20:20;;;;;;;2.77;2.40;;;24.40;64.70;;;;;;4863893;29;20901;-82
2022/10/09 12:22:54;;;;;;;4.13;2.80;;;24.50;64.70;;;;;;4870297;29;20860;-82
2022/10/09 12:25:45;;;;;;;2.90;2.50;;;24.50;64.60;;;;;;4875388;29;20469;-82
2022/10/09 12:28:25;;;;;;;3.07;2.50;;;24.50;64.60;;;;;;4867484;29;20465;-82
2022/10/09 12:30:55;;;;;;;1.87;1.77;;;24.60;64.60;;;;;;4867198;29;20491;-83
2022/10/09 12:33:29;;;;;;;3.73;2.53;;;24.60;64.50;;;;;;4876639;29;20467;-83
2022/10/09 12:36:02;;;;;;;3.33;2.73;;;24.60;64.50;;;;;;4872833;29;20492;-82
2022/10/09 12:38:31;;;;;;;8.93;2.80;;;24.70;64.50;;;;;;4875874;29;20573;-83
2022/10/09 12:41:02;;;;;;;2.83;2.37;;;24.80;64.30;;;;;;4885115;29;20946;-83
2022/10/09 12:43:31;;;;;;;5.40;2.20;;;24.80;64.30;;;;;;4886594;29;20481;-83
2022/10/09 12:46:00;;;;;;;4.27;2.47;;;24.80;64.30;;;;;;4879634;29;20510;-84
2022/10/09 12:48:41;;;;;;;3.97;2.27;;;24.90;64.20;;;;;;4873321;29;20475;-83
2022/10/09 12:51:17;;;;;;;7.17;2.40;;;24.90;64.30;;;;;;4874302;29;20450;-83
2022/10/09 12:53:47;;;;;;;3.67;2.60;;;24.90;64.30;;;;;;4865793;29;20466;-83
2022/10/09 12:56:22;;;;;;;4.03;2.63;;;24.90;64.30;;;;;;4869406;29;20452;-83
2022/10/09 12:58:51;;;;;;;6.10;3.10;;;25.00;64.80;;;;;;4873912;29;20476;-83
2022/10/09 13:01:20;;;;;;;13.53;2.73;;;25.00;65.10;;;;;;4863985;29;20468;-82
2022/10/09 13:03:58;;;;;;;3.20;2.90;;;25.00;65.00;;;;;;4866261;29;20485;-82
2022/10/09 13:06:28;;;;;;;9.23;2.77;;;24.90;65.30;;;;;;4866292;29;20973;-82
2022/10/09 13:08:59;;;;;;;4.93;2.93;;;24.90;65.50;;;;;;4870273;29;20450;-82
2022/10/09 13:11:34;;;;;;;5.73;3.07;;;24.90;65.40;;;;;;4877831;29;20449;-82